In Rescue
 
Open Full Screen Window  High Contrast Mode
July 23, 2019 4:42 AM GMT
Weather Information
Wind Direction
  ---
Wind Speed
  00 kt (0 mph)
Wind Gust
  00 kt (0 mph)
Altimeter
29.86 in
Visibility
7 SM
Temperature
17° C
63° F
Dewpoint
17° C
63° F
Humidity
100%
1hr Rain Fall
00.00 in.
24hr Rain Fall
00.22 in.
Sky Condition
Overcast @ 100 ft
LIFR

METAR K6B0 230442Z AUTO 00000KT 7SM OVC001 17/17 A2986 RMK AO2 T01700166

FAA Disclaimer: The data displayed is for advisory purposes only and is not to be used for flight planning or operations.